createdAt,value
2018-10-17T00:00:11.990Z,19.53
2018-10-17T00:02:40.712Z,21.97
2018-10-17T00:05:10.491Z,27.20
2018-10-17T00:07:39.560Z,21.80
2018-10-17T00:10:09.467Z,29.13
2018-10-17T00:12:38.329Z,30.07
2018-10-17T00:15:07.698Z,28.17
2018-10-17T00:17:36.168Z,25.57
2018-10-17T00:20:04.975Z,24.63
2018-10-17T00:22:33.431Z,21.63
2018-10-17T00:25:02.212Z,24.30
2018-10-17T00:27:30.765Z,23.03
2018-10-17T00:29:59.304Z,20.73
2018-10-17T00:32:27.809Z,22.03
2018-10-17T00:34:58.110Z,24.00
2018-10-17T00:37:26.522Z,22.37
2018-10-17T00:39:55.072Z,28.40
2018-10-17T00:42:23.539Z,21.70
2018-10-17T00:44:52.062Z,27.50
2018-10-17T00:47:20.488Z,25.30
2018-10-17T00:49:48.930Z,28.93
2018-10-17T00:52:17.427Z,22.93
2018-10-17T00:54:46.606Z,25.23
2018-10-17T00:57:15.054Z,21.07
2018-10-17T00:59:43.481Z,23.03
2018-10-17T01:02:12.151Z,21.87
2018-10-17T01:04:40.580Z,20.60
2018-10-17T01:07:09.117Z,24.40
2018-10-17T01:09:37.512Z,25.67
2018-10-17T01:12:06.065Z,25.07
2018-10-17T01:14:34.505Z,23.43
2018-10-17T01:17:03.114Z,24.27
2018-10-17T01:19:31.641Z,25.93
2018-10-17T01:22:00.220Z,21.53
2018-10-17T01:24:28.661Z,23.53
2018-10-17T01:26:57.135Z,24.73
2018-10-17T01:29:25.771Z,25.07
2018-10-17T01:31:54.162Z,27.47
2018-10-17T01:34:22.638Z,24.60
2018-10-17T01:36:51.127Z,23.43
2018-10-17T01:39:19.666Z,28.43
2018-10-17T01:41:48.152Z,24.37
2018-10-17T01:44:16.688Z,24.63
2018-10-17T01:46:45.158Z,23.87
2018-10-17T01:49:13.721Z,23.53
2018-10-17T01:51:42.062Z,22.50
2018-10-17T01:54:10.497Z,22.77
2018-10-17T01:56:39.028Z,24.63
2018-10-17T01:59:07.535Z,23.63
2018-10-17T02:01:35.954Z,22.30
2018-10-17T02:04:04.509Z,25.60
2018-10-17T02:06:32.956Z,22.77
2018-10-17T02:09:01.512Z,24.03
2018-10-17T02:11:29.928Z,23.30
2018-10-17T02:13:58.367Z,22.87
2018-10-17T02:16:26.816Z,24.07
2018-10-17T02:18:55.311Z,25.20
2018-10-17T02:21:23.842Z,40.27
2018-10-17T02:23:52.383Z,38.63
2018-10-17T02:26:20.819Z,31.77
2018-10-17T02:28:49.236Z,25.37
2018-10-17T02:31:17.777Z,21.33
2018-10-17T02:33:46.204Z,23.33
2018-10-17T02:36:14.714Z,20.80
2018-10-17T02:38:43.433Z,20.77
2018-10-17T02:41:11.914Z,23.40
2018-10-17T02:43:40.322Z,23.17
2018-10-17T02:46:08.876Z,20.17
2018-10-17T02:48:37.432Z,22.80
2018-10-17T02:51:05.863Z,24.63
2018-10-17T02:53:34.320Z,23.30
2018-10-17T02:56:02.924Z,25.53
2018-10-17T02:58:31.430Z,22.33
2018-10-17T03:01:00.047Z,21.60
2018-10-17T03:03:28.440Z,22.80
2018-10-17T03:05:56.902Z,24.07
2018-10-17T03:08:25.420Z,21.80
2018-10-17T03:10:54.777Z,23.70
2018-10-17T03:13:23.273Z,22.90
2018-10-17T03:15:51.711Z,24.37
2018-10-17T03:18:20.235Z,23.43
2018-10-17T03:20:48.793Z,21.60
2018-10-17T03:23:17.309Z,20.07
2018-10-17T03:25:45.780Z,22.07
2018-10-17T03:28:14.352Z,21.60
2018-10-17T03:30:42.947Z,21.97
2018-10-17T03:33:11.429Z,23.07
2018-10-17T03:35:39.844Z,26.37
2018-10-17T03:38:08.395Z,24.53
2018-10-17T03:40:36.833Z,24.97
2018-10-17T03:43:05.448Z,22.33
2018-10-17T03:45:34.080Z,24.20
2018-10-17T03:48:02.684Z,24.33
2018-10-17T03:50:31.114Z,25.33
2018-10-17T03:52:59.650Z,21.83
2018-10-17T03:55:28.163Z,23.70
2018-10-17T03:57:56.616Z,22.47
2018-10-17T04:00:25.191Z,22.27
2018-10-17T04:02:53.671Z,26.23
2018-10-17T04:05:22.046Z,22.87
2018-10-17T04:07:50.570Z,25.70
2018-10-17T04:10:19.115Z,23.73
2018-10-17T04:12:47.694Z,24.07
2018-10-17T04:15:16.313Z,25.40
2018-10-17T04:17:44.751Z,26.23
2018-10-17T04:20:13.317Z,23.37
2018-10-17T04:22:45.836Z,27.97
2018-10-17T04:25:14.504Z,21.47
2018-10-17T04:27:42.889Z,21.53
2018-10-17T04:30:11.353Z,26.13
2018-10-17T04:32:39.948Z,21.63
2018-10-17T04:35:08.507Z,23.27
2018-10-17T04:37:36.922Z,22.80
2018-10-17T04:40:05.626Z,27.90
2018-10-17T04:42:34.067Z,22.97
2018-10-17T04:45:02.509Z,23.60
2018-10-17T04:47:31.101Z,22.10
2018-10-17T04:49:59.482Z,22.90
2018-10-17T04:52:27.919Z,20.53
2018-10-17T04:54:56.386Z,23.77
2018-10-17T04:57:25.130Z,21.33
2018-10-17T04:59:53.659Z,21.53
2018-10-17T05:02:22.149Z,26.67
2018-10-17T05:04:50.642Z,23.13
2018-10-17T05:07:19.668Z,22.63
2018-10-17T05:09:48.106Z,22.70
2018-10-17T05:12:16.533Z,22.93
2018-10-17T05:14:45.022Z,23.77
2018-10-17T05:17:13.569Z,28.77
2018-10-17T05:19:41.909Z,25.23
2018-10-17T05:22:10.623Z,22.47
2018-10-17T05:24:39.113Z,23.83
2018-10-17T05:27:07.650Z,27.07
2018-10-17T05:29:36.184Z,22.90
2018-10-17T05:32:04.926Z,25.73
2018-10-17T05:34:33.674Z,30.20
2018-10-17T05:37:02.163Z,26.37
2018-10-17T05:39:37.194Z,25.13
2018-10-17T05:42:06.044Z,24.17
2018-10-17T05:44:34.561Z,26.13
2018-10-17T05:47:02.976Z,25.43
2018-10-17T05:49:32.077Z,27.60
2018-10-17T05:52:00.511Z,24.10
2018-10-17T05:54:29.050Z,25.13
2018-10-17T05:56:57.485Z,23.20
2018-10-17T05:59:25.990Z,22.50
2018-10-17T06:01:55.325Z,23.93
2018-10-17T06:04:23.716Z,27.90
2018-10-17T06:06:52.225Z,21.87
2018-10-17T06:09:20.653Z,21.73
2018-10-17T06:11:49.664Z,22.53
2018-10-17T06:14:18.163Z,20.80
2018-10-17T06:16:47.232Z,18.30
2018-10-17T06:19:15.748Z,19.60
2018-10-17T06:21:44.108Z,20.63
2018-10-17T06:24:12.537Z,21.00
2018-10-17T06:26:40.969Z,27.40
2018-10-17T06:29:09.655Z,25.20
2018-10-17T06:31:38.025Z,24.33
2018-10-17T06:34:06.790Z,23.93
2018-10-17T06:36:35.130Z,23.93
2018-10-17T06:39:04.649Z,22.63
2018-10-17T06:41:33.074Z,30.47
2018-10-17T06:44:01.749Z,30.63
2018-10-17T06:46:30.133Z,33.07
2018-10-17T06:48:58.810Z,32.23
2018-10-17T06:51:27.261Z,42.03
2018-10-17T06:53:55.748Z,30.47
2018-10-17T06:56:24.311Z,28.63
2018-10-17T06:58:52.760Z,28.33
2018-10-17T07:01:21.249Z,32.43
2018-10-17T07:03:49.710Z,30.83
2018-10-17T07:06:18.203Z,23.80
2018-10-17T07:08:47.704Z,23.50
2018-10-17T07:11:16.286Z,25.47
2018-10-17T07:13:44.767Z,22.93
2018-10-17T07:16:13.245Z,23.73
2018-10-17T07:18:41.789Z,24.63
2018-10-17T07:21:10.265Z,22.60
2018-10-17T07:23:38.759Z,26.37
2018-10-17T07:26:07.305Z,18.10
2018-10-17T07:28:35.799Z,20.13
2018-10-17T07:31:04.238Z,19.73
2018-10-17T07:33:32.841Z,19.67
2018-10-17T07:36:01.314Z,21.13
2018-10-17T07:38:29.686Z,21.80
2018-10-17T07:40:58.271Z,18.73
2018-10-17T07:43:26.890Z,19.83
2018-10-17T07:45:55.329Z,22.53
2018-10-17T07:48:23.946Z,20.47
2018-10-17T07:50:52.449Z,19.80
2018-10-17T07:53:21.025Z,16.57
2018-10-17T07:55:49.466Z,16.30
2018-10-17T07:58:17.914Z,15.93
2018-10-17T08:00:46.346Z,15.57
2018-10-17T08:03:14.799Z,16.70
2018-10-17T08:05:43.212Z,15.70
2018-10-17T08:08:11.655Z,16.23
2018-10-17T08:10:40.136Z,16.40
2018-10-17T08:13:08.654Z,18.73
2018-10-17T08:15:37.102Z,16.90
2018-10-17T08:18:05.808Z,17.87
2018-10-17T08:20:34.240Z,21.57
2018-10-17T08:23:02.809Z,16.43
2018-10-17T08:25:31.330Z,18.00
2018-10-17T08:27:59.788Z,17.53
2018-10-17T08:30:28.242Z,18.10
2018-10-17T08:32:56.690Z,17.02
2018-10-17T08:35:25.246Z,15.63
2018-10-17T08:37:54.229Z,15.35
2018-10-17T08:40:22.192Z,14.55
2018-10-17T08:42:50.690Z,15.30
2018-10-17T08:45:19.292Z,14.20
2018-10-17T08:47:47.762Z,14.53
2018-10-17T08:50:16.258Z,14.18
2018-10-17T08:52:44.750Z,14.05
2018-10-17T08:55:13.346Z,13.55
2018-10-17T08:57:42.027Z,13.68
2018-10-17T09:00:10.490Z,12.65
2018-10-17T09:02:38.966Z,13.70
2018-10-17T09:05:07.462Z,12.78
2018-10-17T09:07:36.008Z,13.78
2018-10-17T09:10:04.539Z,11.83
2018-10-17T09:12:33.041Z,12.15
2018-10-17T09:15:01.499Z,12.07
2018-10-17T09:17:30.087Z,11.45
2018-10-17T09:19:58.889Z,12.18
2018-10-17T09:22:27.464Z,12.13
2018-10-17T09:24:55.689Z,11.83
2018-10-17T09:27:24.170Z,12.28
2018-10-17T09:29:52.664Z,12.13
2018-10-17T09:32:21.141Z,12.98
2018-10-17T09:34:49.608Z,12.03
2018-10-17T09:37:18.107Z,12.35
2018-10-17T09:39:46.572Z,13.53
2018-10-17T09:42:15.257Z,12.43
2018-10-17T09:44:43.651Z,13.20
2018-10-17T09:47:12.100Z,12.28
2018-10-17T09:49:40.553Z,13.18
2018-10-17T09:52:09.178Z,11.43
2018-10-17T09:54:37.584Z,12.58
2018-10-17T09:57:06.168Z,12.82
2018-10-17T09:59:34.741Z,12.03
2018-10-17T10:02:03.242Z,12.30
2018-10-17T10:04:31.701Z,12.70
2018-10-17T10:07:00.155Z,12.15
2018-10-17T10:09:28.606Z,12.75
2018-10-17T10:11:57.097Z,12.30
2018-10-17T10:14:25.530Z,11.83
2018-10-17T10:16:54.041Z,12.33
2018-10-17T10:19:22.427Z,11.38
2018-10-17T10:21:50.946Z,13.58
2018-10-17T10:24:19.409Z,13.25
2018-10-17T10:26:47.871Z,12.40
2018-10-17T10:29:16.297Z,13.90
2018-10-17T10:31:44.743Z,13.45
2018-10-17T10:34:13.311Z,13.08
2018-10-17T10:36:41.773Z,11.73
2018-10-17T10:39:11.101Z,12.25
2018-10-17T10:41:40.035Z,12.20
2018-10-17T10:44:08.591Z,12.13
2018-10-17T10:46:36.988Z,14.10
2018-10-17T10:49:05.585Z,13.08
2018-10-17T10:51:34.128Z,12.65
2018-10-17T10:54:02.576Z,11.90
2018-10-17T10:56:31.009Z,14.13
2018-10-17T10:58:59.494Z,14.10
2018-10-17T11:01:27.909Z,13.08
2018-10-17T11:03:56.349Z,12.13
2018-10-17T11:06:24.835Z,12.18
2018-10-17T11:08:53.295Z,12.85
2018-10-17T11:11:21.747Z,13.20
2018-10-17T11:13:50.258Z,13.00
2018-10-17T11:16:18.765Z,12.53
2018-10-17T11:18:47.211Z,12.47
2018-10-17T11:21:15.750Z,14.05
2018-10-17T11:23:44.181Z,13.48
2018-10-17T11:26:12.647Z,13.45
2018-10-17T11:28:41.103Z,13.03
2018-10-17T11:31:09.649Z,13.40
2018-10-17T11:33:38.081Z,14.05
2018-10-17T11:36:06.622Z,12.58
2018-10-17T11:38:35.076Z,12.00
2018-10-17T11:41:03.659Z,12.45
2018-10-17T11:43:32.014Z,12.70
2018-10-17T11:46:00.600Z,12.90
2018-10-17T11:48:29.074Z,12.53
2018-10-17T11:50:57.585Z,13.18
2018-10-17T11:53:26.064Z,13.70
2018-10-17T11:55:54.591Z,14.23
2018-10-17T11:58:23.102Z,13.50
2018-10-17T12:00:51.534Z,14.30
2018-10-17T12:03:20.030Z,14.40
2018-10-17T12:05:48.629Z,14.68
2018-10-17T12:08:16.980Z,16.35
2018-10-17T12:10:49.870Z,16.75
2018-10-17T12:13:18.328Z,15.23
2018-10-17T12:15:46.802Z,16.80
2018-10-17T12:18:15.394Z,13.58
2018-10-17T12:20:43.783Z,13.10
2018-10-17T12:23:12.214Z,12.40
2018-10-17T12:25:40.718Z,11.85
2018-10-17T12:28:09.353Z,13.32
2018-10-17T12:30:37.628Z,13.65
2018-10-17T12:33:06.231Z,15.65
2018-10-17T12:35:34.664Z,13.50
2018-10-17T12:38:03.151Z,14.38
2018-10-17T12:40:31.838Z,14.13
2018-10-17T12:43:00.141Z,14.77
2018-10-17T12:45:28.597Z,15.17
2018-10-17T12:47:57.048Z,15.63
2018-10-17T12:50:25.575Z,16.10
2018-10-17T12:52:54.095Z,16.50
2018-10-17T12:55:22.530Z,16.13
2018-10-17T12:57:50.995Z,18.50
2018-10-17T13:00:19.442Z,20.17
2018-10-17T13:02:47.874Z,22.03
2018-10-17T13:05:16.393Z,24.33
2018-10-17T13:07:44.807Z,22.47
2018-10-17T13:10:13.269Z,22.60
2018-10-17T13:12:42.017Z,20.10
2018-10-17T13:15:12.440Z,21.93
2018-10-17T13:17:41.226Z,21.53
2018-10-17T13:20:09.706Z,24.80
2018-10-17T13:22:38.148Z,23.70
2018-10-17T13:25:06.825Z,26.67
2018-10-17T13:27:35.284Z,26.63
2018-10-17T13:30:04.466Z,27.80
2018-10-17T13:32:32.910Z,23.33
2018-10-17T13:35:01.408Z,24.90
2018-10-17T13:37:29.825Z,34.13
2018-10-17T13:39:58.332Z,37.57
2018-10-17T13:42:26.817Z,34.47
2018-10-17T13:44:55.296Z,31.50
2018-10-17T13:47:23.786Z,27.97
2018-10-17T13:49:52.215Z,26.03
2018-10-17T13:52:20.674Z,21.63
2018-10-17T13:54:49.173Z,20.03
2018-10-17T13:57:17.598Z,20.53
2018-10-17T13:59:46.085Z,20.00
2018-10-17T14:02:14.555Z,23.47
2018-10-17T14:04:42.985Z,19.10
2018-10-17T14:07:11.497Z,17.83
2018-10-17T14:09:39.907Z,20.57
2018-10-17T14:12:08.452Z,18.57
2018-10-17T14:14:36.902Z,18.60
2018-10-17T14:17:05.474Z,16.97
2018-10-17T14:19:33.921Z,17.97
2018-10-17T14:22:02.415Z,17.30
2018-10-17T14:24:30.955Z,16.33
2018-10-17T14:26:59.459Z,16.23
2018-10-17T14:29:27.947Z,15.47
2018-10-17T14:31:56.505Z,18.60
2018-10-17T14:34:25.060Z,17.30
2018-10-17T14:36:53.532Z,17.90
2018-10-17T14:39:22.168Z,17.63
2018-10-17T14:41:50.627Z,17.73
2018-10-17T14:44:19.111Z,16.63
2018-10-17T14:46:47.569Z,17.80
2018-10-17T14:49:16.043Z,31.07
2018-10-17T14:51:44.501Z,21.53
2018-10-17T14:54:13.016Z,19.57
2018-10-17T14:56:41.524Z,19.53
2018-10-17T14:59:10.007Z,26.53
2018-10-17T15:01:38.456Z,21.87
2018-10-17T15:04:06.940Z,26.30
2018-10-17T15:06:35.380Z,23.87
2018-10-17T15:09:04.926Z,33.40
2018-10-17T15:11:33.413Z,24.97
2018-10-17T15:14:01.842Z,26.47
2018-10-17T15:16:30.336Z,23.47
2018-10-17T15:18:58.821Z,23.93
2018-10-17T15:21:27.293Z,20.20
2018-10-17T15:23:55.793Z,26.07
2018-10-17T15:26:24.293Z,23.57
2018-10-17T15:28:53.163Z,29.73
2018-10-17T15:31:21.806Z,24.33
2018-10-17T15:33:50.212Z,26.80
2018-10-17T15:36:18.801Z,26.63
2018-10-17T15:38:47.218Z,25.60
2018-10-17T15:41:15.710Z,25.00
2018-10-17T15:43:44.210Z,27.87
2018-10-17T15:46:12.650Z,28.17
2018-10-17T15:48:41.180Z,25.27
2018-10-17T15:51:09.750Z,29.10
2018-10-17T15:53:38.231Z,25.17
2018-10-17T15:56:06.712Z,28.43
2018-10-17T15:58:35.185Z,25.63
2018-10-17T16:01:03.772Z,37.97
2018-10-17T16:03:32.278Z,44.20
2018-10-17T16:06:00.920Z,32.47
2018-10-17T16:08:29.377Z,35.70
2018-10-17T16:10:57.892Z,26.50
2018-10-17T16:13:26.624Z,26.93
2018-10-17T16:15:55.135Z,18.93
2018-10-17T16:18:23.639Z,20.37
2018-10-17T16:20:52.083Z,19.80
2018-10-17T16:23:20.647Z,20.67
2018-10-17T16:25:49.282Z,19.87
2018-10-17T16:28:18.255Z,21.43
2018-10-17T16:30:47.018Z,18.83
2018-10-17T16:33:15.407Z,19.07
2018-10-17T16:35:44.355Z,22.13
2018-10-17T16:38:12.883Z,22.03
2018-10-17T16:40:41.419Z,22.60
2018-10-17T16:43:09.933Z,21.80
2018-10-17T16:45:39.165Z,23.27
2018-10-17T16:48:07.700Z,22.07
2018-10-17T16:50:36.353Z,23.47
2018-10-17T16:53:04.978Z,23.57
2018-10-17T16:55:33.487Z,23.70
2018-10-17T16:58:02.002Z,25.00
2018-10-17T17:00:31.174Z,24.00
2018-10-17T17:02:59.696Z,22.97
2018-10-17T17:05:28.280Z,21.17
2018-10-17T17:07:57.045Z,24.87
2018-10-17T17:10:26.226Z,26.30
2018-10-17T17:12:54.907Z,28.73
2018-10-17T17:15:23.841Z,26.70
2018-10-17T17:17:52.486Z,28.47
2018-10-17T17:20:21.071Z,24.63
2018-10-17T17:22:50.025Z,25.33
2018-10-17T17:25:18.580Z,26.07
2018-10-17T17:27:47.232Z,21.33
2018-10-17T17:30:18.094Z,26.63
2018-10-17T17:32:48.453Z,26.83
2018-10-17T17:35:17.159Z,29.97
2018-10-17T17:37:46.116Z,24.40
2018-10-17T17:40:15.327Z,28.13
2018-10-17T17:42:44.053Z,27.67
2018-10-17T17:45:13.546Z,25.97
2018-10-17T17:47:47.910Z,28.33
2018-10-17T17:50:16.753Z,28.47
2018-10-17T17:52:45.567Z,28.47
2018-10-17T17:55:14.501Z,31.07
2018-10-17T17:57:43.373Z,31.67
2018-10-17T18:00:12.334Z,29.10
2018-10-17T18:02:41.208Z,29.90
2018-10-17T18:05:10.271Z,27.83
2018-10-17T18:07:39.183Z,32.00
2018-10-17T18:10:08.793Z,27.83
2018-10-17T18:12:38.009Z,31.53
2018-10-17T18:15:08.580Z,30.50
2018-10-17T18:17:38.165Z,29.30
2018-10-17T18:20:08.854Z,28.63
2018-10-17T18:22:39.039Z,32.10
2018-10-17T18:25:09.843Z,31.57
2018-10-17T18:27:40.547Z,31.03
2018-10-17T18:30:09.654Z,30.83
2018-10-17T18:32:38.698Z,31.87
2018-10-17T18:35:07.917Z,30.67
2018-10-17T18:37:38.343Z,33.43
2018-10-17T18:40:07.810Z,32.17
2018-10-17T18:42:37.259Z,42.10
2018-10-17T18:45:06.741Z,66.37
2018-10-17T18:47:35.763Z,61.90
2018-10-17T18:50:06.018Z,59.87
2018-10-17T18:52:35.898Z,44.43
2018-10-17T18:55:06.251Z,39.83
2018-10-17T18:57:35.953Z,33.43
2018-10-17T19:00:06.217Z,37.33
2018-10-17T19:02:36.586Z,33.43
2018-10-17T19:05:06.508Z,32.37
2018-10-17T19:07:35.531Z,32.17
2018-10-17T19:10:04.688Z,31.83
2018-10-17T19:12:33.709Z,37.20
2018-10-17T19:15:02.916Z,37.63
2018-10-17T19:17:31.926Z,38.10
2018-10-17T19:20:02.114Z,31.23
2018-10-17T19:22:31.295Z,31.97
2018-10-17T19:25:00.405Z,32.57
2018-10-17T19:27:29.484Z,31.70
2018-10-17T19:29:59.159Z,29.07
2018-10-17T19:32:28.209Z,28.07
2018-10-17T19:34:57.391Z,31.00
2018-10-17T19:37:27.204Z,37.63
2018-10-17T19:39:57.682Z,36.23
2018-10-17T19:42:27.379Z,33.10
2018-10-17T19:44:58.106Z,35.77
2018-10-17T19:47:28.038Z,33.60
2018-10-17T19:50:01.660Z,35.90
2018-10-17T19:52:31.243Z,37.53
2018-10-17T19:57:27.939Z,33.13
2018-10-17T19:59:57.783Z,34.90
2018-10-17T20:02:26.807Z,34.97
2018-10-17T20:04:55.830Z,33.50
2018-10-17T20:07:25.036Z,34.97
2018-10-17T20:09:54.002Z,30.97
2018-10-17T20:12:23.053Z,35.50
2018-10-17T20:14:52.092Z,35.20
2018-10-17T20:17:21.079Z,32.63
2018-10-17T20:19:50.116Z,32.00
2018-10-17T20:22:19.150Z,29.37
2018-10-17T20:24:48.090Z,31.07
2018-10-17T20:27:17.151Z,31.47
2018-10-17T20:29:46.971Z,36.97
2018-10-17T20:32:15.758Z,34.10
2018-10-17T20:34:44.438Z,35.73
2018-10-17T20:37:13.214Z,33.87
2018-10-17T20:39:41.937Z,30.23
2018-10-17T20:42:10.921Z,35.60
2018-10-17T20:44:39.638Z,33.13
2018-10-17T20:47:08.426Z,32.83
2018-10-17T20:49:36.975Z,35.60
2018-10-17T20:52:05.607Z,35.13
2018-10-17T20:54:34.139Z,32.20
2018-10-17T20:57:02.628Z,33.93
2018-10-17T20:59:31.168Z,27.80
2018-10-17T21:01:59.938Z,37.27
2018-10-17T21:04:28.322Z,37.63
2018-10-17T21:06:56.806Z,34.80
2018-10-17T21:09:25.267Z,36.40
2018-10-17T21:11:53.696Z,35.57
2018-10-17T21:14:22.142Z,36.63
2018-10-17T21:16:50.561Z,31.97
2018-10-17T21:19:19.022Z,36.80
2018-10-17T21:21:47.479Z,36.93
2018-10-17T21:24:16.021Z,35.63
2018-10-17T21:26:44.474Z,32.57
2018-10-17T21:29:12.915Z,32.87
2018-10-17T21:31:41.409Z,33.67
2018-10-17T21:34:09.875Z,27.33
2018-10-17T21:36:38.341Z,33.67
2018-10-17T21:39:10.941Z,30.03
2018-10-17T21:41:39.387Z,36.10
2018-10-17T21:44:09.129Z,31.37
2018-10-17T21:46:37.723Z,33.63
2018-10-17T21:49:06.668Z,33.53
2018-10-17T21:51:35.142Z,36.43
2018-10-17T21:54:03.833Z,38.50
2018-10-17T21:56:32.284Z,49.17
2018-10-17T21:59:00.729Z,45.00
2018-10-17T22:01:29.233Z,37.50
2018-10-17T22:03:57.687Z,37.23
2018-10-17T22:06:32.825Z,43.27
2018-10-17T22:09:01.334Z,47.33
2018-10-17T22:11:29.867Z,42.77
2018-10-17T22:13:58.340Z,38.07
2018-10-17T22:16:31.015Z,36.63
2018-10-17T22:18:59.588Z,29.10
2018-10-17T22:21:27.988Z,29.67
2018-10-17T22:23:56.462Z,32.93
2018-10-17T22:26:24.976Z,32.73
2018-10-17T22:28:53.474Z,28.87
2018-10-17T22:31:21.916Z,31.90
2018-10-17T22:33:51.651Z,35.20
2018-10-17T22:36:20.088Z,47.77
2018-10-17T22:38:48.512Z,46.97
2018-10-17T22:41:17.088Z,37.20
2018-10-17T22:43:45.476Z,33.17
2018-10-17T22:46:13.941Z,34.33
2018-10-17T22:48:42.389Z,34.17
2018-10-17T22:51:10.883Z,35.10
2018-10-17T22:53:39.442Z,29.83
2018-10-17T22:56:07.941Z,30.03
2018-10-17T22:58:36.378Z,29.93
2018-10-17T23:01:05.368Z,32.20
2018-10-17T23:03:33.856Z,31.10
2018-10-17T23:06:02.280Z,37.20
2018-10-17T23:08:30.730Z,33.43
2018-10-17T23:10:59.140Z,31.83
2018-10-17T23:13:27.629Z,34.97
2018-10-17T23:15:56.049Z,36.57
2018-10-17T23:18:24.515Z,35.53
2018-10-17T23:20:52.952Z,38.27
2018-10-17T23:23:21.400Z,39.37
2018-10-17T23:25:49.832Z,38.37
2018-10-17T23:28:18.537Z,38.27
2018-10-17T23:30:47.000Z,38.30
2018-10-17T23:33:15.460Z,33.27
2018-10-17T23:35:43.887Z,35.43
2018-10-17T23:38:12.745Z,37.33
2018-10-17T23:40:41.179Z,46.27
2018-10-17T23:43:10.336Z,48.17
2018-10-17T23:45:39.022Z,48.10
2018-10-17T23:48:08.213Z,47.50
2018-10-17T23:50:37.005Z,51.30
2018-10-17T23:53:05.788Z,41.90
2018-10-17T23:55:34.173Z,43.93
2018-10-17T23:58:02.945Z,40.70
